Terminal Aerodrome Forecast
Issued by NWS

Home | Current Version | Previous Version | Text Only | Print | Product List | Glossary On
Versions: 1 2 3 4 5 6 7 8 9 10 11 12 13 14 15 16 17 18 19 20 21 22 23 24 25 26 27 28 29 30 31 32 33 34 35 36 37 38 39 40 41 42 43 44 45 46 47 48 49 50
720
FTUS41 KCTP 251936 AAA
TAFAOO
TAF AMD
KAOO 251936Z 2520/2618 25010KT P6SM SCT040
      TEMPO 2521/2523 VRB20G35KT 2SM +TSRA OVC025CB
     FM260000 28008KT P6SM VCSH BKN050
     FM260300 27006KT P6SM SCT040
     FM260600 VRB03KT 4SM BR SCT250=

USA.gov is the U.S. government's official web portal to all federal, state and local government web resources and services.